Time;durP1;ratioP1;P1;durP2;ratioP2;P2;SDS_P1;SDS_P2;PMS_P1;PMS_P2;Temp;Humidity;BMP_temperature;BMP_pressure;BME280_temperature;BME280_humidity;BME280_pressure;Samples;Min_cycle;Max_cycle;Signal;HPM_P1;HPM_P2
2023/12/21 00:00:50;;;;;;;14.95;3.53;;;;;;;10.07;100.00;100666.50;10534557;28;20114;-74
2023/12/21 00:05:51;;;;;;;15.55;3.53;;;;;;;10.12;100.00;100664.06;10532797;28;20036;-74
2023/12/21 00:10:52;;;;;;;8.13;1.95;;;;;;;10.17;100.00;100639.91;10534163;28;20092;-74
2023/12/21 00:15:54;;;;;;;11.93;2.65;;;;;;;10.13;100.00;100617.84;10534366;28;20055;-75
2023/12/21 00:20:55;;;;;;;6.82;3.22;;;;;;;10.18;100.00;100631.59;10515615;28;20093;-74
2023/12/21 00:25:55;;;;;;;14.32;4.28;;;;;;;10.17;100.00;100627.22;10534182;28;20134;-74
2023/12/21 00:30:56;;;;;;;6.10;3.42;;;;;;;10.12;100.00;100597.25;10532173;28;20255;-74
2023/12/21 00:35:56;;;;;;;7.82;2.42;;;;;;;10.18;100.00;100587.47;10533049;28;20036;-74
2023/12/21 00:40:59;;;;;;;7.50;3.53;;;;;;;10.11;100.00;100586.59;10532938;28;20044;-73
2023/12/21 00:45:59;;;;;;;6.60;2.75;;;;;;;10.11;100.00;100581.19;10491788;28;20135;-74
2023/12/21 00:50:59;;;;;;;6.82;3.78;;;;;;;9.98;100.00;100571.97;10491149;28;20037;-74
2023/12/21 00:56:00;;;;;;;9.73;3.15;;;;;;;9.95;100.00;100556.16;10491100;28;20103;-74
2023/12/21 01:01:01;;;;;;;14.55;3.10;;;;;;;10.08;100.00;100565.34;10489794;28;20075;-73
2023/12/21 01:06:01;;;;;;;17.10;4.75;;;;;;;10.01;100.00;100560.75;10489586;28;20051;-73
2023/12/21 01:11:02;;;;;;;7.68;2.85;;;;;;;10.03;100.00;100544.34;10491362;28;20383;-73
2023/12/21 01:16:02;;;;;;;11.60;4.93;;;;;;;10.12;100.00;100526.06;10490843;28;20075;-74
2023/12/21 01:21:03;;;;;;;8.63;4.00;;;;;;;10.08;100.00;100516.66;10490598;28;20028;-74
2023/12/21 01:26:04;;;;;;;8.32;5.05;;;;;;;10.10;100.00;100504.59;10489275;28;20173;-73
2023/12/21 01:31:04;;;;;;;14.68;4.05;;;;;;;10.11;100.00;100510.84;10488899;28;20036;-73
2023/12/21 01:36:07;;;;;;;14.98;5.30;;;;;;;10.11;100.00;100500.84;10490201;28;20059;-74
2023/12/21 01:41:08;;;;;;;12.68;3.60;;;;;;;10.06;100.00;100492.53;10499553;28;20058;-73
2023/12/21 01:46:11;;;;;;;6.43;4.07;;;;;;;10.07;100.00;100510.41;10563369;28;20063;-73
2023/12/21 01:51:15;;;;;;;9.60;3.35;;;;;;;10.08;100.00;100479.63;10581856;27;20059;-74
2023/12/21 01:56:18;;;;;;;15.02;4.18;;;;;;;10.11;100.00;100473.78;10564328;28;20218;-73
2023/12/21 02:01:19;;;;;;;10.13;4.10;;;;;;;10.13;100.00;100465.50;10582352;28;20089;-73
2023/12/21 02:06:20;;;;;;;14.15;4.95;;;;;;;10.05;100.00;100474.66;10580229;28;20023;-73
2023/12/21 02:11:23;;;;;;;17.23;4.97;;;;;;;10.10;100.00;100466.72;10579694;28;20036;-73
2023/12/21 02:16:27;;;;;;;8.63;3.55;;;;;;;10.08;100.00;100459.84;10581646;28;20094;-73
2023/12/21 02:21:28;;;;;;;7.10;3.20;;;;;;;10.11;100.00;100459.44;10579178;28;20036;-74
2023/12/21 02:26:29;;;;;;;8.20;3.35;;;;;;;10.08;100.00;100430.91;10578925;28;20104;-74
2023/12/21 02:31:29;;;;;;;16.10;4.50;;;;;;;10.02;100.00;100415.53;10579934;28;20063;-73
2023/12/21 02:36:30;;;;;;;16.33;3.80;;;;;;;10.08;100.00;100413.84;10579476;28;20062;-74
2023/12/21 02:41:30;;;;;;;10.13;3.95;;;;;;;10.06;100.00;100421.38;10579479;28;20066;-73
2023/12/21 02:46:31;;;;;;;15.43;3.80;;;;;;;10.08;100.00;100422.81;10578147;28;20402;-73
2023/12/21 02:51:32;;;;;;;17.00;4.00;;;;;;;10.11;100.00;100405.34;10578928;28;20531;-73
2023/12/21 02:56:32;;;;;;;19.45;4.93;;;;;;;10.11;100.00;100378.28;10577748;28;20139;-73
2023/12/21 03:01:33;;;;;;;10.65;4.47;;;;;;;10.12;100.00;100351.03;10579406;28;20039;-73
2023/12/21 03:06:33;;;;;;;8.05;4.25;;;;;;;10.04;100.00;100343.09;10578268;28;20105;-73
2023/12/21 03:11:34;;;;;;;22.05;4.50;;;;;;;10.05;100.00;100320.44;10577038;28;20063;-73
2023/12/21 03:16:34;;;;;;;12.27;4.53;;;;;;;10.09;100.00;100318.16;10578219;28;20084;-73
2023/12/21 03:21:36;;;;;;;18.65;4.20;;;;;;;10.06;100.00;100286.09;10578045;28;20040;-73
2023/12/21 03:26:37;;;;;;;11.80;5.82;;;;;;;10.03;100.00;100298.16;10578028;28;20112;-73
2023/12/21 03:31:38;;;;;;;6.25;3.88;;;;;;;10.01;100.00;100319.19;10576324;28;20108;-73
2023/12/21 03:36:38;;;;;;;7.03;3.90;;;;;;;10.04;100.00;100274.66;10577671;28;20107;-73
2023/12/21 03:41:39;;;;;;;15.40;3.95;;;;;;;10.06;100.00;100273.41;10576285;28;20231;-73
2023/12/21 03:46:39;;;;;;;9.80;3.63;;;;;;;10.07;100.00;100271.53;10577481;28;20116;-74
2023/12/21 03:51:39;;;;;;;13.45;4.93;;;;;;;10.10;100.00;100254.88;10575650;28;20044;-73
2023/12/21 03:56:40;;;;;;;6.18;2.30;;;;;;;10.13;100.00;100255.28;10576973;28;20479;-73
2023/12/21 04:01:40;;;;;;;8.95;5.00;;;;;;;10.16;100.00;100243.22;10575568;28;20573;-73
2023/12/21 04:06:42;;;;;;;9.05;4.43;;;;;;;10.20;100.00;100230.91;10575866;28;20019;-73
2023/12/21 04:11:42;;;;;;;15.20;3.35;;;;;;;10.14;100.00;100210.13;10576945;28;20034;-73
2023/12/21 04:16:43;;;;;;;13.30;4.40;;;;;;;10.14;100.00;100191.19;10575724;28;20035;-73
2023/12/21 04:21:43;;;;;;;12.27;2.70;;;;;;;10.06;100.00;100162.50;10576135;28;20096;-74
2023/12/21 04:26:44;;;;;;;12.00;3.22;;;;;;;10.11;100.00;100164.56;10575648;28;20038;-74
2023/12/21 04:31:44;;;;;;;9.82;3.05;;;;;;;10.13;100.00;100157.06;10557349;28;20032;-74
2023/12/21 04:36:45;;;;;;;10.05;2.95;;;;;;;9.97;100.00;100159.19;10575338;28;20053;-74
2023/12/21 04:41:45;;;;;;;13.05;4.05;;;;;;;9.89;100.00;100155.88;10574913;28;20088;-74
2023/12/21 04:46:48;;;;;;;10.13;3.72;;;;;;;9.84;100.00;100152.97;10574070;28;20391;-73
2023/12/21 04:51:48;;;;;;;11.52;3.28;;;;;;;9.83;100.00;100129.66;10574976;28;20028;-73
2023/12/21 04:56:49;;;;;;;10.98;3.72;;;;;;;9.86;100.00;100138.22;10575674;28;20514;-73
2023/12/21 05:01:56;;;;;;;14.13;4.78;;;;;;;9.89;100.00;100132.38;10575184;28;20093;-73
2023/12/21 05:06:57;;;;;;;15.88;3.78;;;;;;;9.93;100.00;100122.78;10573183;28;20089;-73
2023/12/21 05:11:57;;;;;;;10.60;3.28;;;;;;;9.93;100.00;100093.03;10575160;28;20031;-73
2023/12/21 05:17:01;;;;;;;10.55;3.08;;;;;;;9.90;100.00;100079.13;10583959;28;20035;-73
2023/12/21 05:22:01;;;;;;;11.25;5.15;;;;;;;9.78;100.00;100105.97;10583149;28;20514;-73
2023/12/21 05:27:01;;;;;;;7.45;3.40;;;;;;;9.76;100.00;100102.66;10583116;28;20347;-74
2023/12/21 05:32:02;;;;;;;11.45;3.47;;;;;;;9.72;100.00;100106.81;10582577;28;20030;-74
2023/12/21 05:37:03;;;;;;;14.65;4.10;;;;;;;9.72;100.00;100106.81;10580894;28;20039;-74
2023/12/21 05:42:03;;;;;;;20.67;4.60;;;;;;;9.70;100.00;100077.31;10581384;28;20366;-73
2023/12/21 05:47:04;;;;;;;21.75;5.55;;;;;;;9.76;100.00;100070.19;10582982;27;20648;-73
2023/12/21 05:52:05;;;;;;;5.00;3.72;;;;;;;9.87;100.00;100066.84;10580191;28;20071;-73
2023/12/21 05:57:05;;;;;;;26.75;3.65;;;;;;;9.94;100.00;100069.53;10580218;28;20046;-73
2023/12/21 06:02:06;;;;;;;12.52;5.15;;;;;;;10.01;100.00;100048.69;10581766;28;20103;-73
2023/12/21 06:07:06;;;;;;;21.33;4.43;;;;;;;10.06;100.00;100024.53;10581035;28;20118;-73
2023/12/21 06:12:07;;;;;;;8.40;3.38;;;;;;;10.04;100.00;100013.09;10579687;28;20098;-73
2023/12/21 06:17:09;;;;;;;17.60;3.90;;;;;;;10.09;100.00;99994.34;10562549;28;20110;-73
2023/12/21 06:22:10;;;;;;;26.05;5.32;;;;;;;10.12;100.00;99993.09;10503986;28;20051;-73
2023/12/21 06:27:11;;;;;;;13.18;3.20;;;;;;;10.11;100.00;99977.88;10561618;28;20031;-73
2023/12/21 06:32:11;;;;;;;5.63;3.55;;;;;;;10.16;100.00;99972.66;10579013;28;20030;-73
2023/12/21 06:37:12;;;;;;;2.85;2.55;;;;;;;10.17;100.00;99958.91;10580095;28;20038;-74
2023/12/21 06:42:13;;;;;;;13.63;2.85;;;;;;;10.22;100.00;99969.09;10580039;28;20134;-73
2023/12/21 06:47:13;;;;;;;27.30;4.47;;;;;;;10.27;100.00;99957.63;10579686;28;20368;-73
2023/12/21 06:52:14;;;;;;;11.23;3.63;;;;;;;10.28;100.00;99943.09;10580096;28;20119;-73
2023/12/21 06:57:15;;;;;;;15.60;3.42;;;;;;;10.28;100.00;99930.38;10578041;28;20039;-73
2023/12/21 07:02:16;;;;;;;11.70;3.47;;;;;;;10.23;100.00;99912.03;10580792;28;20043;-73
2023/12/21 07:07:16;;;;;;;10.55;3.25;;;;;;;10.07;100.00;99912.56;10578838;28;20123;-72
2023/12/21 07:12:17;;;;;;;10.63;3.97;;;;;;;9.85;100.00;99895.03;10578092;28;20024;-73
2023/12/21 07:17:17;;;;;;;9.48;5.82;;;;;;;9.77;100.00;99885.31;10594460;27;20035;-73
2023/12/21 07:22:18;;;;;;;20.17;5.07;;;;;;;9.77;100.00;99878.03;10578200;28;20031;-73
2023/12/21 07:27:18;;;;;;;17.60;3.90;;;;;;;9.68;100.00;99884.75;10578111;28;20055;-72
2023/12/21 07:32:19;;;;;;;13.27;3.47;;;;;;;9.62;100.00;99882.06;10578017;28;20077;-72
2023/12/21 07:37:19;;;;;;;11.95;4.60;;;;;;;9.66;100.00;99869.78;10577539;28;20360;-72
2023/12/21 07:42:20;;;;;;;8.15;3.10;;;;;;;9.69;100.00;99864.75;10577432;28;20048;-73
2023/12/21 07:47:21;;;;;;;18.02;4.50;;;;;;;9.71;100.00;99849.16;10576026;28;20162;-73
2023/12/21 07:52:22;;;;;;;15.00;4.38;;;;;;;9.78;100.00;99854.53;10577667;28;20465;-73
2023/12/21 07:57:23;;;;;;;8.93;3.60;;;;;;;9.82;100.00;99853.03;10559294;28;20062;-73
2023/12/21 08:02:24;;;;;;;12.38;2.50;;;;;;;9.91;100.00;99849.03;10576709;28;20031;-74
2023/12/21 08:07:25;;;;;;;8.52;4.32;;;;;;;9.98;100.00;99806.53;10576293;28;20028;-73
2023/12/21 08:12:28;;;;;;;10.05;4.03;;;;;;;10.10;100.00;99833.69;10576178;28;20475;-73
2023/12/21 08:17:30;;;;;;;7.43;3.30;;;;;;;10.19;100.00;99826.13;10575114;28;20122;-73
2023/12/21 08:22:31;;;;;;;19.15;4.13;;;;;;;10.31;100.00;99832.53;10574691;28;20039;-73
2023/12/21 08:27:31;;;;;;;19.15;3.67;;;;;;;10.34;100.00;99806.88;10576518;28;20073;-73
2023/12/21 08:32:31;;;;;;;11.50;4.40;;;;;;;10.43;100.00;99821.78;10574446;28;20033;-73
2023/12/21 08:37:32;;;;;;;9.02;3.45;;;;;;;10.55;100.00;99833.53;10574019;28;20388;-73
2023/12/21 08:42:32;;;;;;;13.65;3.33;;;;;;;10.61;100.00;99819.09;10574399;28;20077;-73
2023/12/21 08:47:40;;;;;;;8.10;3.08;;;;;;;10.65;100.00;99816.78;10575014;28;20037;-73
2023/12/21 08:52:41;;;;;;;11.15;4.47;;;;;;;10.62;100.00;99815.31;10575693;28;20449;-73
2023/12/21 08:57:42;;;;;;;10.25;4.80;;;;;;;10.65;100.00;99817.59;10575331;28;20032;-73
2023/12/21 09:02:42;;;;;;;26.88;4.43;;;;;;;10.69;100.00;99834.25;10556866;28;20073;-73
2023/12/21 09:07:44;;;;;;;22.65;4.28;;;;;;;10.61;100.00;99840.75;10574688;28;20032;-73
2023/12/21 09:12:45;;;;;;;24.92;4.20;;;;;;;10.41;100.00;99822.00;10574921;28;20026;-73
2023/12/21 09:17:46;;;;;;;8.38;2.97;;;;;;;10.32;100.00;99803.56;10574634;28;20034;-73
2023/12/21 09:22:47;;;;;;;10.57;3.40;;;;;;;10.31;100.00;99807.34;10574900;28;20047;-73
2023/12/21 09:27:48;;;;;;;4.53;2.65;;;;;;;10.29;100.00;99794.03;10574611;28;20509;-74
2023/12/21 09:32:48;;;;;;;9.65;3.70;;;;;;;10.37;100.00;99792.91;10575111;28;20051;-73
2023/12/21 09:37:50;;;;;;;8.65;3.85;;;;;;;10.46;100.00;99780.72;10574185;28;20051;-73
2023/12/21 09:42:51;;;;;;;14.68;5.15;;;;;;;10.60;100.00;99789.56;10574506;28;20429;-73
2023/12/21 09:47:51;;;;;;;23.20;4.50;;;;;;;10.66;100.00;99767.81;10573116;28;20035;-73
2023/12/21 09:52:52;;;;;;;11.45;4.70;;;;;;;10.67;100.00;99803.84;10573104;28;20036;-73
2023/12/21 09:57:52;;;;;;;15.35;4.50;;;;;;;10.78;100.00;99800.38;10574158;28;20066;-73
2023/12/21 10:02:53;;;;;;;15.02;5.35;;;;;;;10.86;100.00;99770.28;10561499;28;20096;-74
2023/12/21 10:07:54;;;;;;;6.75;3.17;;;;;;;10.80;100.00;99778.50;10581117;28;20031;-73
2023/12/21 10:12:55;;;;;;;19.08;4.65;;;;;;;10.79;100.00;99783.09;10580487;28;20063;-74
2023/12/21 10:17:56;;;;;;;4.43;2.65;;;;;;;10.82;100.00;99785.34;10581057;28;20118;-73
2023/12/21 10:22:56;;;;;;;12.52;3.45;;;;;;;10.82;100.00;99789.94;10581519;28;20538;-74
2023/12/21 10:27:57;;;;;;;31.70;5.40;;;;;;;10.83;100.00;99772.63;10580700;28;20116;-73
2023/12/21 10:32:58;;;;;;;3.10;2.63;;;;;;;10.84;100.00;99769.69;10580591;28;20035;-74
2023/12/21 10:37:58;;;;;;;14.07;5.15;;;;;;;10.85;100.00;99774.06;10578644;28;20027;-74
2023/12/21 10:42:59;;;;;;;11.77;5.35;;;;;;;10.92;100.00;99774.81;10579748;28;20055;-74
2023/12/21 10:48:00;;;;;;;10.85;4.13;;;;;;;10.97;100.00;99781.41;10579200;28;20390;-74
2023/12/21 10:53:01;;;;;;;12.23;4.05;;;;;;;10.99;100.00;99766.59;10561666;28;20023;-73
2023/12/21 10:58:02;;;;;;;9.60;3.45;;;;;;;11.12;100.00;99781.84;10578533;28;20059;-73
2023/12/21 11:03:05;;;;;;;12.27;3.88;;;;;;;11.21;100.00;99741.72;10578051;28;20379;-73
2023/12/21 11:08:06;;;;;;;9.75;4.00;;;;;;;11.25;100.00;99749.16;10594548;27;20048;-74
2023/12/21 11:13:06;;;;;;;8.25;4.22;;;;;;;11.35;100.00;99738.56;10578914;28;20028;-74
2023/12/21 11:18:16;;;;;;;16.45;4.07;;;;;;;11.59;100.00;99727.81;10560477;28;20373;-73
2023/12/21 11:23:16;;;;;;;9.60;4.20;;;;;;;11.61;100.00;99741.94;10577383;28;20092;-74
2023/12/21 11:28:27;;;;;;;12.90;4.40;;;;;;;11.74;100.00;99730.91;10576857;28;20083;-74
2023/12/21 11:33:29;;;;;;;13.35;4.68;;;;;;;11.75;100.00;99718.16;10578197;28;20118;-74
2023/12/21 11:38:46;;;;;;;8.90;3.17;;;;;;;11.76;100.00;99709.78;10576186;28;20422;-74
2023/12/21 11:44:00;;;;;;;13.25;3.17;;;;;;;11.72;100.00;99716.72;10576409;28;20138;-74
2023/12/21 11:49:01;;;;;;;9.70;2.28;;;;;;;11.73;100.00;99709.41;10577601;28;20437;-74
2023/12/21 11:54:05;;;;;;;11.88;4.03;;;;;;;11.94;100.00;99708.06;10576408;28;20020;-74
2023/12/21 11:59:06;;;;;;;5.18;2.50;;;;;;;12.17;100.00;99708.03;10559825;28;20027;-74
2023/12/21 12:04:11;;;;;;;8.40;3.05;;;;;;;11.97;100.00;99715.72;10576329;28;20056;-73
2023/12/21 12:09:11;;;;;;;8.00;3.35;;;;;;;11.81;100.00;99701.78;10575781;28;20034;-74
2023/12/21 12:14:12;;;;;;;9.63;2.65;;;;;;;11.72;100.00;99700.47;10576905;28;20344;-74
2023/12/21 12:19:12;;;;;;;12.85;4.45;;;;;;;11.60;100.00;99695.00;10576805;28;20039;-74
2023/12/21 12:24:16;;;;;;;13.65;3.67;;;;;;;11.53;100.00;99682.63;10575823;28;20024;-73
2023/12/21 12:29:17;;;;;;;24.55;4.55;;;;;;;11.57;100.00;99670.25;10574835;28;20039;-75
2023/12/21 12:34:17;;;;;;;16.15;3.53;;;;;;;11.52;100.00;99687.25;10575681;28;20062;-74
2023/12/21 12:39:17;;;;;;;8.30;3.50;;;;;;;11.50;100.00;99689.34;10573691;28;20047;-74
2023/12/21 12:44:19;;;;;;;16.83;5.13;;;;;;;11.46;100.00;99692.78;10573967;28;20047;-74
2023/12/21 12:49:22;;;;;;;22.02;5.65;;;;;;;11.39;100.00;99715.38;10575590;28;20032;-73
2023/12/21 12:54:28;;;;;;;15.68;4.78;;;;;;;11.31;100.00;99698.63;10575503;28;20043;-74
2023/12/21 12:59:34;;;;;;;14.55;3.63;;;;;;;11.35;100.00;99700.63;10574809;28;20443;-74
2023/12/21 13:04:34;;;;;;;15.55;4.88;;;;;;;11.47;100.00;99707.97;10575021;28;20055;-74
2023/12/21 13:09:35;;;;;;;20.85;5.72;;;;;;;11.64;100.00;99681.81;10574018;28;20047;-73
2023/12/21 13:14:36;;;;;;;20.05;4.18;;;;;;;11.93;100.00;99690.13;10575104;28;20490;-74
2023/12/21 13:19:37;;;;;;;18.85;5.90;;;;;;;11.79;100.00;99695.75;10574717;28;20373;-74
2023/12/21 13:24:39;;;;;;;13.73;3.72;;;;;;;11.69;100.00;99708.25;10575327;28;20053;-73
2023/12/21 13:29:39;;;;;;;10.75;4.85;;;;;;;11.67;100.00;99710.34;10573766;28;20432;-74
2023/12/21 13:34:40;;;;;;;22.23;6.63;;;;;;;11.65;100.00;99713.31;10576569;28;20034;-74
2023/12/21 13:39:40;;;;;;;8.90;4.93;;;;;;;11.66;100.00;99706.81;10581346;28;20387;-74
2023/12/21 13:44:41;;;;;;;19.75;4.53;;;;;;;11.67;100.00;99697.63;10582558;28;20073;-74
2023/12/21 13:49:41;;;;;;;14.90;4.45;;;;;;;11.52;100.00;99716.22;10582891;28;20036;-74
2023/12/21 13:54:42;;;;;;;24.52;4.55;;;;;;;11.50;100.00;99723.78;10582437;28;20031;-74
2023/12/21 13:59:42;;;;;;;22.92;8.10;;;;;;;11.62;100.00;99719.19;10580628;28;20073;-73
2023/12/21 14:04:43;;;;;;;16.40;4.97;;;;;;;11.79;100.00;99736.44;10579931;28;20616;-74
2023/12/21 14:09:44;;;;;;;12.30;5.55;;;;;;;11.76;100.00;99717.09;10580473;28;20027;-74
2023/12/21 14:14:44;;;;;;;23.33;8.02;;;;;;;11.63;100.00;99734.41;10581271;28;20032;-74
2023/12/21 14:19:45;;;;;;;26.35;7.00;;;;;;;11.52;100.00;99748.75;10580990;28;20031;-74
2023/12/21 14:24:45;;;;;;;52.35;7.25;;;;;;;11.59;100.00;99738.66;10580877;28;20107;-74
2023/12/21 14:29:45;;;;;;;15.13;6.30;;;;;;;11.61;100.00;99745.50;10580374;28;20063;-74
2023/12/21 14:34:46;;;;;;;18.92;5.80;;;;;;;11.74;100.00;99749.88;10579918;28;20122;-74
2023/12/21 14:39:46;;;;;;;13.68;5.82;;;;;;;11.66;100.00;99743.97;10580245;28;20063;-74
2023/12/21 14:44:47;;;;;;;18.60;6.00;;;;;;;11.70;100.00;99739.72;10578126;28;20083;-74
2023/12/21 14:49:48;;;;;;;20.40;6.03;;;;;;;11.56;100.00;99752.66;10578303;28;20543;-74
2023/12/21 14:54:48;;;;;;;22.23;6.82;;;;;;;11.47;100.00;99729.66;10578550;28;20064;-74
2023/12/21 14:59:49;;;;;;;20.65;6.57;;;;;;;11.39;100.00;99766.88;10578072;28;20470;-74
2023/12/21 15:04:49;;;;;;;23.83;6.05;;;;;;;11.44;100.00;99770.78;10578537;28;20032;-74
2023/12/21 15:09:51;;;;;;;17.30;5.70;;;;;;;11.33;100.00;99740.69;10577762;28;20027;-74
2023/12/21 15:14:51;;;;;;;27.90;6.65;;;;;;;11.34;100.00;99766.75;10578551;28;20316;-74
2023/12/21 15:19:51;;;;;;;22.67;8.02;;;;;;;11.30;100.00;99787.22;10577173;28;20102;-74
2023/12/21 15:24:52;;;;;;;19.33;6.28;;;;;;;11.17;100.00;99788.25;10578488;28;20039;-74
2023/12/21 15:29:52;;;;;;;24.55;6.72;;;;;;;11.09;100.00;99793.97;10578183;28;20023;-74
2023/12/21 15:34:53;;;;;;;22.70;6.60;;;;;;;11.09;100.00;99803.97;10575744;28;20481;-74
2023/12/21 15:39:53;;;;;;;25.52;7.13;;;;;;;11.13;100.00;99808.69;10577760;28;20067;-74
2023/12/21 15:44:54;;;;;;;29.55;8.18;;;;;;;11.15;100.00;99806.59;10577157;28;20055;-74
2023/12/21 15:49:55;;;;;;;15.25;5.97;;;;;;;11.20;100.00;99805.94;10575974;28;20063;-74
2023/12/21 15:54:56;;;;;;;12.57;5.18;;;;;;;11.15;100.00;99819.31;10576926;28;20073;-74
2023/12/21 15:59:56;;;;;;;18.42;3.95;;;;;;;11.06;100.00;99809.84;10575469;28;20388;-74
2023/12/21 16:04:57;;;;;;;23.42;6.78;;;;;;;11.01;100.00;99801.56;10576583;28;20023;-74
2023/12/21 16:09:57;;;;;;;22.10;7.30;;;;;;;11.00;100.00;99794.50;10574746;28;20041;-74
2023/12/21 16:15:00;;;;;;;22.40;7.65;;;;;;;10.90;100.00;99809.41;10576141;28;20042;-74
2023/12/21 16:20:01;;;;;;;29.58;6.47;;;;;;;10.90;100.00;99809.41;10575151;28;20439;-74
2023/12/21 16:25:02;;;;;;;22.45;8.00;;;;;;;10.94;100.00;99823.31;10574331;28;20031;-74
2023/12/21 16:30:03;;;;;;;19.52;6.00;;;;;;;10.98;100.00;99818.31;10574176;28;20160;-74
2023/12/21 16:35:04;;;;;;;22.92;7.25;;;;;;;10.71;100.00;99832.13;10574771;28;20019;-74
2023/12/21 16:40:05;;;;;;;22.83;4.80;;;;;;;10.50;100.00;99841.50;10575190;28;20048;-74
2023/12/21 16:45:06;;;;;;;16.65;5.25;;;;;;;10.47;100.00;99867.13;10574756;28;20044;-74
2023/12/21 16:50:07;;;;;;;12.60;5.22;;;;;;;10.37;100.00;99858.69;10573319;28;20106;-73
2023/12/21 16:55:08;;;;;;;9.15;4.95;;;;;;;10.16;100.00;99848.22;10556918;28;20031;-74
2023/12/21 17:00:10;;;;;;;20.00;5.57;;;;;;;10.23;100.00;99840.88;10574639;28;20036;-74
2023/12/21 17:05:10;;;;;;;10.80;4.65;;;;;;;10.31;100.00;99851.47;10572914;28;20494;-74
2023/12/21 17:10:12;;;;;;;6.65;4.22;;;;;;;10.23;100.00;99892.28;10576960;28;20108;-74
2023/12/21 17:15:13;;;;;;;25.23;6.20;;;;;;;10.33;100.00;99878.28;10581928;28;20058;-74
2023/12/21 17:20:14;;;;;;;22.60;5.63;;;;;;;10.23;100.00;99894.97;10583519;28;20038;-74
2023/12/21 17:25:14;;;;;;;19.52;5.20;;;;;;;10.14;100.00;99889.00;10582626;28;20348;-74
2023/12/21 17:30:15;;;;;;;14.48;6.03;;;;;;;9.99;100.00;99907.44;10583848;28;20050;-74
2023/12/21 17:35:16;;;;;;;15.98;5.65;;;;;;;9.89;100.00;99921.44;10582432;28;20031;-74
2023/12/21 17:40:16;;;;;;;19.60;4.95;;;;;;;9.97;100.00;99923.88;10582411;28;20030;-74
2023/12/21 17:45:17;;;;;;;11.80;6.10;;;;;;;10.08;100.00;99949.38;10582384;28;20180;-74
2023/12/21 17:50:18;;;;;;;15.45;6.43;;;;;;;10.17;100.00;99948.09;10582799;28;20081;-74
2023/12/21 17:55:18;;;;;;;19.65;3.92;;;;;;;9.01;100.00;99980.59;10563515;28;20408;-72
2023/12/21 18:00:19;;;;;;;0.50;0.50;;;;;;;8.00;100.00;99976.09;10581856;28;20031;-73
2023/12/21 18:05:20;;;;;;;2.40;2.28;;;;;;;7.42;100.00;99978.38;10581153;27;20028;-74
2023/12/21 18:10:20;;;;;;;0.50;0.50;;;;;;;7.32;100.00;99980.63;10582211;28;20032;-72
2023/12/21 18:15:24;;;;;;;0.50;0.50;;;;;;;7.10;100.00;99982.56;10581554;28;20035;-72
